sensor_id;sensor_type;location;lat;lon;timestamp;pressure;altitude;pressure_sealevel;temperature;humidity
81865;BME280;71313;43.514;1.500;2024-02-16T00:02:05;99995.78;;;17.11;60.56
81865;BME280;71313;43.514;1.500;2024-02-16T00:04:31;99999.50;;;17.10;60.32
81865;BME280;71313;43.514;1.500;2024-02-16T00:06:56;100012.06;;;17.11;61.14
81865;BME280;71313;43.514;1.500;2024-02-16T00:09:21;100006.94;;;17.08;60.32
81865;BME280;71313;43.514;1.500;2024-02-16T00:11:47;100012.34;;;17.08;60.42
81865;BME280;71313;43.514;1.500;2024-02-16T00:14:15;100025.75;;;17.10;59.89
81865;BME280;71313;43.514;1.500;2024-02-16T00:16:41;100014.22;;;17.08;60.40
81865;BME280;71313;43.514;1.500;2024-02-16T00:19:06;100027.47;;;17.11;60.41
81865;BME280;71313;43.514;1.500;2024-02-16T00:21:31;100030.34;;;17.09;60.39
81865;BME280;71313;43.514;1.500;2024-02-16T00:23:57;100024.06;;;17.09;59.89
81865;BME280;71313;43.514;1.500;2024-02-16T00:26:22;100026.91;;;17.07;60.69
81865;BME280;71313;43.514;1.500;2024-02-16T00:28:48;100032.19;;;17.09;60.31
81865;BME280;71313;43.514;1.500;2024-02-16T00:31:13;100034.03;;;17.08;60.77
81865;BME280;71313;43.514;1.500;2024-02-16T00:33:39;100036.03;;;17.06;60.39
81865;BME280;71313;43.514;1.500;2024-02-16T00:36:04;100050.31;;;17.08;60.90
81865;BME280;71313;43.514;1.500;2024-02-16T00:38:30;100043.88;;;17.09;60.76
81865;BME280;71313;43.514;1.500;2024-02-16T00:40:55;100050.31;;;17.08;60.77
81865;BME280;71313;43.514;1.500;2024-02-16T00:43:21;100055.00;;;17.06;60.80
81865;BME280;71313;43.514;1.500;2024-02-16T00:45:46;100062.00;;;17.09;60.01
81865;BME280;71313;43.514;1.500;2024-02-16T00:48:13;100067.44;;;17.09;60.24
81865;BME280;71313;43.514;1.500;2024-02-16T00:50:38;100062.16;;;17.07;60.66
81865;BME280;71313;43.514;1.500;2024-02-16T00:53:04;100059.44;;;17.07;59.94
81865;BME280;71313;43.514;1.500;2024-02-16T00:55:29;100069.28;;;17.08;60.06
81865;BME280;71313;43.514;1.500;2024-02-16T00:57:55;100071.13;;;17.08;60.98
81865;BME280;71313;43.514;1.500;2024-02-16T01:00:21;100072.28;;;17.05;60.70
81865;BME280;71313;43.514;1.500;2024-02-16T01:02:48;100068.56;;;17.06;60.65
81865;BME280;71313;43.514;1.500;2024-02-16T01:05:14;100074.00;;;17.06;60.41
81865;BME280;71313;43.514;1.500;2024-02-16T01:07:43;100084.13;;;17.04;60.03
81865;BME280;71313;43.514;1.500;2024-02-16T01:10:08;100083.13;;;17.05;60.62
81865;BME280;71313;43.514;1.500;2024-02-16T01:12:34;100068.00;;;17.03;61.01
81865;BME280;71313;43.514;1.500;2024-02-16T01:14:59;100072.28;;;17.05;61.07
81865;BME280;71313;43.514;1.500;2024-02-16T01:17:25;100072.41;;;17.04;60.26
81865;BME280;71313;43.514;1.500;2024-02-16T01:19:50;100076.28;;;17.01;60.81
81865;BME280;71313;43.514;1.500;2024-02-16T01:22:15;100073.56;;;17.01;60.49
81865;BME280;71313;43.514;1.500;2024-02-16T01:24:41;100078.97;;;17.01;61.05
81865;BME280;71313;43.514;1.500;2024-02-16T01:27:06;100077.84;;;17.04;60.95
81865;BME280;71313;43.514;1.500;2024-02-16T01:29:32;100074.56;;;17.00;60.59
81865;BME280;71313;43.514;1.500;2024-02-16T01:31:58;100079.13;;;17.00;60.43
81865;BME280;71313;43.514;1.500;2024-02-16T01:34:23;100077.97;;;17.02;60.46
81865;BME280;71313;43.514;1.500;2024-02-16T01:36:49;100077.97;;;17.02;60.53
81865;BME280;71313;43.514;1.500;2024-02-16T01:39:14;100075.56;;;16.99;60.74
81865;BME280;71313;43.514;1.500;2024-02-16T01:41:39;100075.28;;;17.02;60.42
81865;BME280;71313;43.514;1.500;2024-02-16T01:44:05;100064.56;;;17.01;59.99
81865;BME280;71313;43.514;1.500;2024-02-16T01:46:32;100062.00;;;16.99;60.76
81865;BME280;71313;43.514;1.500;2024-02-16T01:48:58;100060.16;;;17.00;60.24
81865;BME280;71313;43.514;1.500;2024-02-16T01:51:24;100065.44;;;17.01;60.11
81865;BME280;71313;43.514;1.500;2024-02-16T01:53:51;100060.88;;;17.02;60.41
81865;BME280;71313;43.514;1.500;2024-02-16T01:56:18;100062.72;;;17.01;60.89
81865;BME280;71313;43.514;1.500;2024-02-16T01:58:46;100058.28;;;17.00;60.48
81865;BME280;71313;43.514;1.500;2024-02-16T02:01:11;100060.28;;;16.98;60.98
81865;BME280;71313;43.514;1.500;2024-02-16T02:03:37;100062.00;;;16.99;60.96
81865;BME280;71313;43.514;1.500;2024-02-16T02:06:02;100063.00;;;16.98;60.23
81865;BME280;71313;43.514;1.500;2024-02-16T02:08:28;100058.44;;;16.99;60.14
81865;BME280;71313;43.514;1.500;2024-02-16T02:10:53;100060.28;;;16.98;60.17
81865;BME280;71313;43.514;1.500;2024-02-16T02:13:19;100056.00;;;16.96;60.18
81865;BME280;71313;43.514;1.500;2024-02-16T02:15:46;100067.72;;;16.96;60.86
81865;BME280;71313;43.514;1.500;2024-02-16T02:18:12;100057.00;;;16.95;61.19
81865;BME280;71313;43.514;1.500;2024-02-16T02:20:37;100051.72;;;16.93;60.89
81865;BME280;71313;43.514;1.500;2024-02-16T02:23:03;100056.44;;;16.91;60.02
81865;BME280;71313;43.514;1.500;2024-02-16T02:25:29;100059.88;;;16.93;60.83
81865;BME280;71313;43.514;1.500;2024-02-16T02:27:55;100068.00;;;16.93;61.25
81865;BME280;71313;43.514;1.500;2024-02-16T02:30:21;100062.56;;;16.93;60.27
81865;BME280;71313;43.514;1.500;2024-02-16T02:32:47;100061.72;;;16.93;60.56
81865;BME280;71313;43.514;1.500;2024-02-16T02:35:14;100064.56;;;16.91;60.61
81865;BME280;71313;43.514;1.500;2024-02-16T02:37:40;100062.84;;;16.90;61.06
81865;BME280;71313;43.514;1.500;2024-02-16T02:40:07;100064.72;;;16.90;60.27
81865;BME280;71313;43.514;1.500;2024-02-16T02:42:34;100063.72;;;16.91;60.32
81865;BME280;71313;43.514;1.500;2024-02-16T02:44:59;100062.84;;;16.90;60.90
81865;BME280;71313;43.514;1.500;2024-02-16T02:47:25;100062.00;;;16.90;61.06
81865;BME280;71313;43.514;1.500;2024-02-16T02:49:50;100065.56;;;16.90;60.91
81865;BME280;71313;43.514;1.500;2024-02-16T02:52:16;100066.41;;;16.91;60.45
81865;BME280;71313;43.514;1.500;2024-02-16T02:54:41;100065.72;;;16.88;61.25
81865;BME280;71313;43.514;1.500;2024-02-16T02:57:06;100071.97;;;16.89;61.27
81865;BME280;71313;43.514;1.500;2024-02-16T02:59:32;100059.72;;;16.85;60.33
81865;BME280;71313;43.514;1.500;2024-02-16T03:01:57;100065.13;;;16.85;60.24
81865;BME280;71313;43.514;1.500;2024-02-16T03:04:23;100066.13;;;16.84;60.49
81865;BME280;71313;43.514;1.500;2024-02-16T03:06:51;100073.13;;;16.86;60.37
81865;BME280;71313;43.514;1.500;2024-02-16T03:09:17;100076.97;;;16.84;60.91
81865;BME280;71313;43.514;1.500;2024-02-16T03:11:42;100074.25;;;16.84;60.84
81865;BME280;71313;43.514;1.500;2024-02-16T03:14:08;100070.84;;;16.82;61.21
81865;BME280;71313;43.514;1.500;2024-02-16T03:16:33;100076.13;;;16.83;61.47
81865;BME280;71313;43.514;1.500;2024-02-16T03:18:58;100079.81;;;16.82;60.29
81865;BME280;71313;43.514;1.500;2024-02-16T03:21:25;100078.97;;;16.82;60.55
81865;BME280;71313;43.514;1.500;2024-02-16T03:23:50;100070.84;;;16.82;61.01
81865;BME280;71313;43.514;1.500;2024-02-16T03:26:19;100076.25;;;16.82;61.11
81865;BME280;71313;43.514;1.500;2024-02-16T03:28:48;100073.53;;;16.82;60.31
81865;BME280;71313;43.514;1.500;2024-02-16T03:31:17;100077.25;;;16.81;60.51
81865;BME280;71313;43.514;1.500;2024-02-16T03:33:43;100074.69;;;16.79;61.46
81865;BME280;71313;43.514;1.500;2024-02-16T03:36:09;100078.25;;;16.80;61.22
81865;BME280;71313;43.514;1.500;2024-02-16T03:38:34;100076.53;;;16.79;61.31
81865;BME280;71313;43.514;1.500;2024-02-16T03:40:59;100091.94;;;16.78;60.61
81865;BME280;71313;43.514;1.500;2024-02-16T03:43:25;100097.34;;;16.78;61.83
81865;BME280;71313;43.514;1.500;2024-02-16T03:45:51;100092.06;;;16.77;61.32
81865;BME280;71313;43.514;1.500;2024-02-16T03:48:16;100093.94;;;16.76;61.03
81865;BME280;71313;43.514;1.500;2024-02-16T03:50:42;100092.22;;;16.75;61.42
81865;BME280;71313;43.514;1.500;2024-02-16T03:53:07;100100.47;;;16.74;61.15
81865;BME280;71313;43.514;1.500;2024-02-16T03:55:33;100104.19;;;16.73;61.79
81865;BME280;71313;43.514;1.500;2024-02-16T03:58:02;100100.63;;;16.72;61.97
81865;BME280;71313;43.514;1.500;2024-02-16T04:00:28;100102.47;;;16.72;61.77
81865;BME280;71313;43.514;1.500;2024-02-16T04:02:53;100094.50;;;16.70;61.96
81865;BME280;71313;43.514;1.500;2024-02-16T04:05:19;100103.63;;;16.69;61.44
81865;BME280;71313;43.514;1.500;2024-02-16T04:07:44;100110.88;;;16.69;61.39
81865;BME280;71313;43.514;1.500;2024-02-16T04:10:09;100111.03;;;16.67;61.42
81865;BME280;71313;43.514;1.500;2024-02-16T04:12:35;100110.16;;;16.67;62.39
81865;BME280;71313;43.514;1.500;2024-02-16T04:15:01;100110.16;;;16.67;61.20
81865;BME280;71313;43.514;1.500;2024-02-16T04:17:27;100108.44;;;16.66;62.16
81865;BME280;71313;43.514;1.500;2024-02-16T04:19:52;100115.81;;;16.64;62.53
81865;BME280;71313;43.514;1.500;2024-02-16T04:22:17;100117.56;;;16.65;62.18
81865;BME280;71313;43.514;1.500;2024-02-16T04:24:43;100117.56;;;16.65;62.10
81865;BME280;71313;43.514;1.500;2024-02-16T04:27:08;100127.66;;;16.63;61.92
81865;BME280;71313;43.514;1.500;2024-02-16T04:29:33;100123.22;;;16.62;61.57
81865;BME280;71313;43.514;1.500;2024-02-16T04:31:59;100130.38;;;16.63;62.46
81865;BME280;71313;43.514;1.500;2024-02-16T04:34:24;100130.66;;;16.60;62.33
81865;BME280;71313;43.514;1.500;2024-02-16T04:36:50;100142.34;;;16.60;62.37
81865;BME280;71313;43.514;1.500;2024-02-16T04:39:15;100142.47;;;16.59;61.62
81865;BME280;71313;43.514;1.500;2024-02-16T04:41:42;100145.31;;;16.57;61.76
81865;BME280;71313;43.514;1.500;2024-02-16T04:44:07;100144.47;;;16.56;62.40
81865;BME280;71313;43.514;1.500;2024-02-16T04:46:33;100149.16;;;16.54;62.60
81865;BME280;71313;43.514;1.500;2024-02-16T04:48:58;100156.28;;;16.55;62.86
81865;BME280;71313;43.514;1.500;2024-02-16T04:51:24;100159.00;;;16.55;61.89
81865;BME280;71313;43.514;1.500;2024-02-16T04:53:49;100170.84;;;16.54;62.55
81865;BME280;71313;43.514;1.500;2024-02-16T04:56:15;100168.97;;;16.55;62.45
81865;BME280;71313;43.514;1.500;2024-02-16T04:58:41;100175.38;;;16.54;63.02
81865;BME280;71313;43.514;1.500;2024-02-16T05:01:07;100176.53;;;16.51;63.01
81865;BME280;71313;43.514;1.500;2024-02-16T05:03:32;100179.22;;;16.51;62.44
81865;BME280;71313;43.514;1.500;2024-02-16T05:05:57;100181.09;;;16.51;62.98
81865;BME280;71313;43.514;1.500;2024-02-16T05:08:23;100178.50;;;16.49;62.99
81865;BME280;71313;43.514;1.500;2024-02-16T05:10:48;100184.78;;;16.50;63.11
81865;BME280;71313;43.514;1.500;2024-02-16T05:13:13;100189.34;;;16.49;62.33
81865;BME280;71313;43.514;1.500;2024-02-16T05:15:39;100188.63;;;16.47;62.02
81865;BME280;71313;43.514;1.500;2024-02-16T05:18:05;100197.59;;;16.48;63.10
81865;BME280;71313;43.514;1.500;2024-02-16T05:20:30;100193.31;;;16.45;62.22
81865;BME280;71313;43.514;1.500;2024-02-16T05:22:55;100203.16;;;16.46;63.23
81865;BME280;71313;43.514;1.500;2024-02-16T05:25:22;100201.44;;;16.45;62.29
81865;BME280;71313;43.514;1.500;2024-02-16T05:27:47;100208.72;;;16.45;62.91
81865;BME280;71313;43.514;1.500;2024-02-16T05:30:13;100204.16;;;16.45;62.54
81865;BME280;71313;43.514;1.500;2024-02-16T05:32:41;100214.13;;;16.45;62.85
81865;BME280;71313;43.514;1.500;2024-02-16T05:35:08;100209.97;;;16.41;62.63
81865;BME280;71313;43.514;1.500;2024-02-16T05:37:46;100221.53;;;16.43;62.92
81865;BME280;71313;43.514;1.500;2024-02-16T05:40:17;100227.81;;;16.43;62.34
81865;BME280;71313;43.514;1.500;2024-02-16T05:42:57;100231.50;;;16.42;63.04
81865;BME280;71313;43.514;1.500;2024-02-16T05:45:25;100237.78;;;16.43;63.57
81865;BME280;71313;43.514;1.500;2024-02-16T05:47:53;100235.19;;;16.41;63.34
81865;BME280;71313;43.514;1.500;2024-02-16T05:50:20;100238.03;;;16.40;63.23
81865;BME280;71313;43.514;1.500;2024-02-16T05:52:46;100245.19;;;16.41;63.62
81865;BME280;71313;43.514;1.500;2024-02-16T05:55:12;100246.03;;;16.41;62.49
81865;BME280;71313;43.514;1.500;2024-02-16T05:57:38;100242.88;;;16.36;62.62
81865;BME280;71313;43.514;1.500;2024-02-16T06:00:06;100248.03;;;16.39;62.54
81865;BME280;71313;43.514;1.500;2024-02-16T06:02:33;100257.88;;;16.40;63.70
81865;BME280;71313;43.514;1.500;2024-02-16T06:05:02;100255.28;;;16.39;63.48
81865;BME280;71313;43.514;1.500;2024-02-16T06:07:29;100258.84;;;16.39;63.77
81865;BME280;71313;43.514;1.500;2024-02-16T06:09:55;100260.84;;;16.37;63.41
81865;BME280;71313;43.514;1.500;2024-02-16T06:12:21;100262.56;;;16.38;63.00
81865;BME280;71313;43.514;1.500;2024-02-16T06:14:46;100264.53;;;16.36;63.29
81865;BME280;71313;43.514;1.500;2024-02-16T06:17:13;100268.97;;;16.37;63.71
81865;BME280;71313;43.514;1.500;2024-02-16T06:19:40;100275.38;;;16.36;63.61
81865;BME280;71313;43.514;1.500;2024-02-16T06:22:07;100276.22;;;16.37;63.65
81865;BME280;71313;43.514;1.500;2024-02-16T06:24:33;100285.34;;;16.36;63.70
81865;BME280;71313;43.514;1.500;2024-02-16T06:26:59;100287.91;;;16.37;63.93
81865;BME280;71313;43.514;1.500;2024-02-16T06:29:24;100293.34;;;16.37;64.25
81865;BME280;71313;43.514;1.500;2024-02-16T06:31:49;100290.63;;;16.37;63.94
81865;BME280;71313;43.514;1.500;2024-02-16T06:34:15;100295.06;;;16.38;64.15
81865;BME280;71313;43.514;1.500;2024-02-16T06:36:41;100293.34;;;16.37;64.07
81865;BME280;71313;43.514;1.500;2024-02-16T06:39:07;100287.91;;;16.37;64.47
81865;BME280;71313;43.514;1.500;2024-02-16T06:41:32;100290.75;;;16.36;63.83
81865;BME280;71313;43.514;1.500;2024-02-16T06:43:58;100289.91;;;16.35;64.37
81865;BME280;71313;43.514;1.500;2024-02-16T06:46:23;100297.03;;;16.36;63.84
81865;BME280;71313;43.514;1.500;2024-02-16T06:48:50;100297.28;;;16.33;64.08
81865;BME280;71313;43.514;1.500;2024-02-16T06:51:17;100300.72;;;16.35;64.10
81865;BME280;71313;43.514;1.500;2024-02-16T06:53:42;100300.00;;;16.33;64.31
81865;BME280;71313;43.514;1.500;2024-02-16T06:56:08;100310.72;;;16.35;64.36
81865;BME280;71313;43.514;1.500;2024-02-16T06:58:33;100315.25;;;16.34;64.60
81865;BME280;71313;43.514;1.500;2024-02-16T07:01:01;100322.41;;;16.35;64.05
81865;BME280;71313;43.514;1.500;2024-02-16T07:03:28;100320.69;;;16.34;64.09
81865;BME280;71313;43.514;1.500;2024-02-16T07:05:54;100327.94;;;16.34;64.49
81865;BME280;71313;43.514;1.500;2024-02-16T07:08:20;100324.63;;;16.30;63.70
81865;BME280;71313;43.514;1.500;2024-02-16T07:10:45;100326.34;;;16.31;64.07
81865;BME280;71313;43.514;1.500;2024-02-16T07:13:12;100331.78;;;16.31;64.88
81865;BME280;71313;43.514;1.500;2024-02-16T07:15:38;100341.63;;;16.32;64.40
81865;BME280;71313;43.514;1.500;2024-02-16T07:18:04;100338.91;;;16.32;64.88
81865;BME280;71313;43.514;1.500;2024-02-16T07:20:30;100342.59;;;16.31;64.57
81865;BME280;71313;43.514;1.500;2024-02-16T07:22:55;100347.16;;;16.31;64.61
81865;BME280;71313;43.514;1.500;2024-02-16T07:25:20;100349.06;;;16.19;65.21
81865;BME280;71313;43.514;1.500;2024-02-16T07:27:46;100344.81;;;16.05;65.82
81865;BME280;71313;43.514;1.500;2024-02-16T07:30:11;100363.66;;;15.96;65.84
81865;BME280;71313;43.514;1.500;2024-02-16T07:32:38;100359.28;;;15.83;65.64
81865;BME280;71313;43.514;1.500;2024-02-16T07:35:04;100358.31;;;15.73;66.16
81865;BME280;71313;43.514;1.500;2024-02-16T07:37:29;100363.13;;;15.70;66.14
81865;BME280;71313;43.514;1.500;2024-02-16T07:39:55;100367.06;;;15.66;66.62
81865;BME280;71313;43.514;1.500;2024-02-16T07:42:20;100368.47;;;15.60;66.19
81865;BME280;71313;43.514;1.500;2024-02-16T07:44:46;100365.03;;;15.58;66.97
81865;BME280;71313;43.514;1.500;2024-02-16T07:47:11;100368.22;;;15.41;67.15
81865;BME280;71313;43.514;1.500;2024-02-16T07:49:38;100381.72;;;15.07;69.18
81865;BME280;71313;43.514;1.500;2024-02-16T07:52:05;100380.50;;;15.11;68.99
81865;BME280;71313;43.514;1.500;2024-02-16T07:54:30;100387.50;;;15.03;69.49
81865;BME280;71313;43.514;1.500;2024-02-16T07:56:55;100386.91;;;15.10;68.12
81865;BME280;71313;43.514;1.500;2024-02-16T07:59:21;100389.09;;;15.05;68.96
81865;BME280;71313;43.514;1.500;2024-02-16T08:01:47;100394.72;;;14.80;71.15
81865;BME280;71313;43.514;1.500;2024-02-16T08:04:12;100396.16;;;14.61;72.51
81865;BME280;71313;43.514;1.500;2024-02-16T08:06:38;100389.16;;;14.70;70.79
81865;BME280;71313;43.514;1.500;2024-02-16T08:09:03;100409.69;;;14.73;70.96
81865;BME280;71313;43.514;1.500;2024-02-16T08:11:29;100412.50;;;14.71;71.59
81865;BME280;71313;43.514;1.500;2024-02-16T08:13:54;100408.22;;;14.80;71.48
81865;BME280;71313;43.514;1.500;2024-02-16T08:16:21;100404.66;;;14.79;71.17
81865;BME280;71313;43.514;1.500;2024-02-16T08:18:46;100413.59;;;14.69;72.32
81865;BME280;71313;43.514;1.500;2024-02-16T08:21:12;100415.56;;;14.67;72.50
81865;BME280;71313;43.514;1.500;2024-02-16T08:23:37;100415.66;;;14.65;72.47
81865;BME280;71313;43.514;1.500;2024-02-16T08:26:03;100422.09;;;14.75;71.67
81865;BME280;71313;43.514;1.500;2024-02-16T08:28:29;100415.66;;;14.65;72.68
81865;BME280;71313;43.514;1.500;2024-02-16T08:30:54;100423.97;;;14.51;72.84
81865;BME280;71313;43.514;1.500;2024-02-16T08:33:19;100420.44;;;14.61;73.15
81865;BME280;71313;43.514;1.500;2024-02-16T08:35:45;100428.34;;;14.76;72.40
81865;BME280;71313;43.514;1.500;2024-02-16T08:38:10;100430.31;;;14.74;71.93
81865;BME280;71313;43.514;1.500;2024-02-16T08:40:39;100429.09;;;14.78;72.06
81865;BME280;71313;43.514;1.500;2024-02-16T08:43:05;100433.63;;;14.77;72.59
81865;BME280;71313;43.514;1.500;2024-02-16T08:45:32;100429.56;;;14.72;72.67
81865;BME280;71313;43.514;1.500;2024-02-16T08:47:57;100441.69;;;14.66;72.89
81865;BME280;71313;43.514;1.500;2024-02-16T08:50:23;100439.59;;;14.58;72.99
81865;BME280;71313;43.514;1.500;2024-02-16T08:52:51;100448.19;;;14.64;73.63
81865;BME280;71313;43.514;1.500;2024-02-16T08:55:17;100444.75;;;14.61;73.63
81865;BME280;71313;43.514;1.500;2024-02-16T08:57:42;100445.06;;;14.81;72.50
81865;BME280;71313;43.514;1.500;2024-02-16T09:00:08;100453.44;;;14.89;72.25
81865;BME280;71313;43.514;1.500;2024-02-16T09:02:35;100444.44;;;14.77;73.59
81865;BME280;71313;43.514;1.500;2024-02-16T09:05:00;100459.94;;;14.86;72.81
81865;BME280;71313;43.514;1.500;2024-02-16T09:07:25;100460.50;;;14.68;74.84
81865;BME280;71313;43.514;1.500;2024-02-16T09:09:51;100459.44;;;14.81;74.11
81865;BME280;71313;43.514;1.500;2024-02-16T09:12:17;100469.88;;;14.86;74.46
81865;BME280;71313;43.514;1.500;2024-02-16T09:14:42;100465.97;;;14.90;73.96
81865;BME280;71313;43.514;1.500;2024-02-16T09:17:07;100477.28;;;14.95;73.50
81865;BME280;71313;43.514;1.500;2024-02-16T09:19:33;100472.00;;;14.93;74.12
81865;BME280;71313;43.514;1.500;2024-02-16T09:21:59;100487.09;;;14.61;75.12
81865;BME280;71313;43.514;1.500;2024-02-16T09:24:27;100482.97;;;14.68;74.89
81865;BME280;71313;43.514;1.500;2024-02-16T09:26:54;100485.53;;;14.70;74.53
81865;BME280;71313;43.514;1.500;2024-02-16T09:29:20;100488.81;;;14.62;75.06
81865;BME280;71313;43.514;1.500;2024-02-16T09:31:49;100494.66;;;14.80;74.76
81865;BME280;71313;43.514;1.500;2024-02-16T09:34:15;100499.22;;;14.55;76.26
81865;BME280;71313;43.514;1.500;2024-02-16T09:36:42;100496.91;;;14.86;75.26
81865;BME280;71313;43.514;1.500;2024-02-16T09:39:08;100502.91;;;14.54;75.61
81865;BME280;71313;43.514;1.500;2024-02-16T09:41:34;100508.41;;;14.77;74.86
81865;BME280;71313;43.514;1.500;2024-02-16T09:44:03;100504.16;;;14.61;75.44
81865;BME280;71313;43.514;1.500;2024-02-16T09:46:30;100500.72;;;14.59;75.56
81865;BME280;71313;43.514;1.500;2024-02-16T09:49:01;100510.19;;;14.65;74.86
81865;BME280;71313;43.514;1.500;2024-02-16T09:51:31;100516.19;;;14.57;74.87
81865;BME280;71313;43.514;1.500;2024-02-16T09:53:57;100513.56;;;14.80;74.43
81865;BME280;71313;43.514;1.500;2024-02-16T09:56:22;100518.28;;;14.89;74.52
81865;BME280;71313;43.514;1.500;2024-02-16T09:58:53;100511.84;;;14.79;74.43
81865;BME280;71313;43.514;1.500;2024-02-16T10:01:21;100520.47;;;14.84;74.41
81865;BME280;71313;43.514;1.500;2024-02-16T10:03:47;100519.75;;;14.93;73.97
81865;BME280;71313;43.514;1.500;2024-02-16T10:06:13;100520.50;;;14.95;75.20
81865;BME280;71313;43.514;1.500;2024-02-16T10:08:54;100528.69;;;15.17;74.10
81865;BME280;71313;43.514;1.500;2024-02-16T10:11:21;100526.50;;;15.22;73.70
81865;BME280;71313;43.514;1.500;2024-02-16T10:14:00;100524.56;;;15.47;73.35
81865;BME280;71313;43.514;1.500;2024-02-16T10:16:27;100535.53;;;15.56;72.86
81865;BME280;71313;43.514;1.500;2024-02-16T10:19:04;100522.97;;;15.55;73.27
81865;BME280;71313;43.514;1.500;2024-02-16T10:21:30;100526.31;;;15.70;72.43
81865;BME280;71313;43.514;1.500;2024-02-16T10:24:00;100533.44;;;15.71;72.09
81865;BME280;71313;43.514;1.500;2024-02-16T10:26:29;100536.00;;;15.50;72.66
81865;BME280;71313;43.514;1.500;2024-02-16T10:28:56;100551.41;;;15.72;71.96
81865;BME280;71313;43.514;1.500;2024-02-16T10:31:25;100549.19;;;15.77;72.87
81865;BME280;71313;43.514;1.500;2024-02-16T10:34:03;100542.56;;;15.59;72.42
81865;BME280;71313;43.514;1.500;2024-02-16T10:36:32;100554.72;;;15.65;72.01
81865;BME280;71313;43.514;1.500;2024-02-16T10:38:58;100558.63;;;15.61;72.42
81865;BME280;71313;43.514;1.500;2024-02-16T10:41:26;100556.06;;;15.81;72.03
81865;BME280;71313;43.514;1.500;2024-02-16T10:43:55;100568.13;;;16.00;71.78
81865;BME280;71313;43.514;1.500;2024-02-16T10:46:22;100555.09;;;15.94;71.13
81865;BME280;71313;43.514;1.500;2024-02-16T10:48:48;100564.69;;;15.86;71.12
81865;BME280;71313;43.514;1.500;2024-02-16T10:51:15;100572.56;;;15.78;71.32
81865;BME280;71313;43.514;1.500;2024-02-16T10:53:45;100567.38;;;15.75;71.80
81865;BME280;71313;43.514;1.500;2024-02-16T10:56:13;100582.88;;;15.73;72.09
81865;BME280;71313;43.514;1.500;2024-02-16T10:58:38;100589.00;;;15.53;71.95
81865;BME280;71313;43.514;1.500;2024-02-16T11:01:09;100603.50;;;15.17;72.46
81865;BME280;71313;43.514;1.500;2024-02-16T11:03:38;100592.44;;;14.61;73.17
81865;BME280;71313;43.514;1.500;2024-02-16T11:06:16;100597.44;;;15.02;71.40
81865;BME280;71313;43.514;1.500;2024-02-16T11:08:42;100596.38;;;15.16;70.43
81865;BME280;71313;43.514;1.500;2024-02-16T11:11:08;100592.84;;;15.26;69.69
81865;BME280;71313;43.514;1.500;2024-02-16T11:13:37;100596.81;;;15.34;69.74
81865;BME280;71313;43.514;1.500;2024-02-16T11:16:06;100605.94;;;15.44;69.68
81865;BME280;71313;43.514;1.500;2024-02-16T11:18:32;100605.47;;;15.50;68.73
81865;BME280;71313;43.514;1.500;2024-02-16T11:21:02;100603.50;;;15.52;68.76
81865;BME280;71313;43.514;1.500;2024-02-16T11:23:29;100608.47;;;15.58;69.52
81865;BME280;71313;43.514;1.500;2024-02-16T11:26:00;100609.66;;;15.65;68.44
81865;BME280;71313;43.514;1.500;2024-02-16T11:28:27;100604.25;;;15.65;69.09
81865;BME280;71313;43.514;1.500;2024-02-16T11:30:53;100600.34;;;15.69;68.88
81865;BME280;71313;43.514;1.500;2024-02-16T11:33:18;100603.31;;;15.77;68.97
81865;BME280;71313;43.514;1.500;2024-02-16T11:35:58;100604.53;;;15.84;68.47
81865;BME280;71313;43.514;1.500;2024-02-16T11:38:25;100598.75;;;15.89;68.92
81865;BME280;71313;43.514;1.500;2024-02-16T11:40:58;100599.38;;;15.93;68.32
81865;BME280;71313;43.514;1.500;2024-02-16T11:43:24;100603.44;;;15.98;69.11
81865;BME280;71313;43.514;1.500;2024-02-16T11:45:50;100599.63;;;16.01;68.36
81865;BME280;71313;43.514;1.500;2024-02-16T11:48:19;100597.41;;;16.06;69.08
81865;BME280;71313;43.514;1.500;2024-02-16T11:50:47;100605.28;;;16.09;69.09
81865;BME280;71313;43.514;1.500;2024-02-16T11:53:18;100599.88;;;16.09;68.50
81865;BME280;71313;43.514;1.500;2024-02-16T11:55:49;100603.94;;;16.14;68.38
81865;BME280;71313;43.514;1.500;2024-02-16T11:58:18;100600.97;;;16.17;68.38
81865;BME280;71313;43.514;1.500;2024-02-16T12:00:47;100600.75;;;16.09;68.01
81865;BME280;71313;43.514;1.500;2024-02-16T12:03:24;100592.97;;;16.16;68.96
81865;BME280;71313;43.514;1.500;2024-02-16T12:05:54;100597.78;;;16.23;67.89
81865;BME280;71313;43.514;1.500;2024-02-16T12:08:20;100596.06;;;16.22;68.55
81865;BME280;71313;43.514;1.500;2024-02-16T12:10:47;100597.66;;;16.25;69.01
81865;BME280;71313;43.514;1.500;2024-02-16T12:13:16;100597.41;;;16.28;68.37
81865;BME280;71313;43.514;1.500;2024-02-16T12:15:46;100594.56;;;16.30;68.46
81865;BME280;71313;43.514;1.500;2024-02-16T12:21:04;100600.59;;;16.33;67.31
81865;BME280;71313;43.514;1.500;2024-02-16T12:23:35;100590.28;;;16.27;67.52
81865;BME280;71313;43.514;1.500;2024-02-16T12:26:02;100596.03;;;16.34;67.93
81865;BME280;71313;43.514;1.500;2024-02-16T12:28:30;100593.47;;;16.32;67.78
81865;BME280;71313;43.514;1.500;2024-02-16T12:30:58;100597.16;;;16.31;68.55
81865;BME280;71313;43.514;1.500;2024-02-16T12:33:24;100595.91;;;16.35;67.34
81865;BME280;71313;43.514;1.500;2024-02-16T12:35:50;100593.47;;;16.32;67.31
81865;BME280;71313;43.514;1.500;2024-02-16T12:38:16;100596.66;;;16.37;67.82
81865;BME280;71313;43.514;1.500;2024-02-16T12:40:46;100595.66;;;16.38;67.95
81865;BME280;71313;43.514;1.500;2024-02-16T12:43:12;100593.69;;;16.40;68.04
81865;BME280;71313;43.514;1.500;2024-02-16T12:45:39;100587.53;;;16.38;67.59
81865;BME280;71313;43.514;1.500;2024-02-16T12:48:04;100592.84;;;16.40;67.53
81865;BME280;71313;43.514;1.500;2024-02-16T12:50:31;100596.16;;;16.43;66.76